< Typhoon 198012 1980 Season Typhoon 198014 >
Typhoon 198013 (ORCHID)
General InformationTrack Information on Google MapsDetailed Wind Information || Disaster Info.ResourceGoogle EarthGE AnimationAtom FeedGeoJSON
Detalied Best Track (Time Zone = UTC)
Year Month Day Hour Lat. Long. Pressure (hPa) Wind (kt) Class Image Chart
1980 9 4 00 8.8 147.0 1000 0 2 -- Chart
1980 9 4 06 9.3 146.2 1000 0 2 -- Chart
1980 9 4 12 9.7 145.2 1000 0 2 -- Chart
1980 9 4 18 10.5 144.2 998 0 2 -- Chart
1980 9 5 00 11.5 144.0 998 0 2 -- Chart
1980 9 5 06 13.0 144.0 998 0 2 -- Chart
1980 9 5 12 13.5 144.0 998 0 2 -- Chart
1980 9 5 18 14.0 144.5 998 0 2 -- Chart
1980 9 6 00 14.5 144.5 998 0 2 -- Chart
1980 9 6 06 15.0 144.5 998 0 2 -- Chart
1980 9 6 12 16.0 144.0 996 0 2 -- Chart
1980 9 6 18 17.0 143.5 996 0 2 -- Chart
1980 9 7 00 18.0 142.7 994 40 3 -- Chart
1980 9 7 06 18.6 141.3 992 45 3 -- Chart
1980 9 7 12 18.9 139.8 990 45 3 -- Chart
1980 9 7 18 19.3 138.8 985 55 4 -- Chart
1980 9 8 00 20.1 138.1 985 55 4 -- Chart
1980 9 8 06 20.8 137.5 980 60 4 -- Chart
1980 9 8 12 21.4 136.6 975 60 4 -- Chart
1980 9 8 18 22.2 135.5 970 60 4 -- Chart
1980 9 9 00 22.8 134.4 970 60 4 -- Chart
1980 9 9 06 23.2 133.0 970 60 4 -- Chart
1980 9 9 12 23.6 132.1 970 65 5 -- Chart
1980 9 9 18 24.5 131.0 965 65 5 -- Chart
1980 9 10 00 25.4 130.1 960 70 5 -- Chart
1980 9 10 06 26.9 130.1 960 70 5 -- Chart
1980 9 10 12 28.2 130.2 960 70 5 -- Chart
1980 9 10 18 30.4 130.3 965 70 5 -- Chart
1980 9 11 00 31.5 131.1 962 70 5 -- Chart
1980 9 11 06 34.3 131.3 972 70 5 -- Chart
1980 9 11 12 38.0 132.9 980 70 5 -- Chart
1980 9 11 18 42.0 135.2 980 60 4 -- Chart
1980 9 12 00 45.5 135.3 980 0 6 -- Chart
1980 9 12 06 47.5 134.5 984 0 6 -- Chart
1980 9 12 12 49.0 133.0 988 0 6 -- Chart
1980 9 12 18 50.0 132.0 990 0 6 -- Chart
1980 9 13 00 51.0 129.0 992 0 6 -- Chart
1980 9 13 06 51.5 130.0 994 0 6 -- Chart
1980 9 13 12 52.0 131.0 996 0 6 -- Chart
1980 9 13 18 53.0 133.0 996 0 6 -- Chart
1980 9 14 00 53.0 135.0 996 0 6 -- Chart
1980 9 14 06 52.0 141.0 996 0 6 -- Chart
1980 9 14 12 52.0 143.0 998 0 6 -- Chart
1980 9 14 18 54.0 146.0 998 0 6 -- Chart
1980 9 15 00 55.0 146.0 1004 0 6 -- Chart
1980 9 15 06 56.0 146.0 1004 0 6 -- Chart
1980 9 15 12 57.0 145.0 1004 0 6 -- Chart
1980 9 15 18 58.0 145.0 1004 0 6 -- Chart
1980 9 16 00 59.0 144.0 1004 0 6 -- Chart
Japan Meteorological Agency Best Track Data | Correction Date : 1992-10-21
< Typhoon 198012 1980 Season Typhoon 198014 >

Help